sensor_id;sensor_type;location;lat;lon;timestamp;temperature;humidity
26503;DHT22;14177;51.520;6.764;2023-06-24T00:00:45;18.90;99.90
26503;DHT22;14177;51.520;6.764;2023-06-24T00:06:50;18.90;99.90
26503;DHT22;14177;51.520;6.764;2023-06-24T00:15:33;18.80;99.90
26503;DHT22;14177;51.520;6.764;2023-06-24T00:18:26;18.80;99.90
26503;DHT22;14177;51.520;6.764;2023-06-24T05:50:47;20.10;99.90
26503;DHT22;14177;51.520;6.764;2023-06-24T05:53:16;20.20;99.90
26503;DHT22;14177;51.520;6.764;2023-06-24T05:55:43;20.30;99.90
26503;DHT22;14177;51.520;6.764;2023-06-24T05:58:10;20.30;99.90
26503;DHT22;14177;51.520;6.764;2023-06-24T06:00:37;20.30;99.90
26503;DHT22;14177;51.520;6.764;2023-06-24T06:03:04;20.40;99.90
26503;DHT22;14177;51.520;6.764;2023-06-24T06:05:31;20.40;99.90
26503;DHT22;14177;51.520;6.764;2023-06-24T06:07:58;20.50;99.90
26503;DHT22;14177;51.520;6.764;2023-06-24T06:10:25;20.60;99.90
26503;DHT22;14177;51.520;6.764;2023-06-24T06:12:52;20.60;99.90
26503;DHT22;14177;51.520;6.764;2023-06-24T06:15:20;20.70;99.90
26503;DHT22;14177;51.520;6.764;2023-06-24T06:17:47;20.70;99.90
26503;DHT22;14177;51.520;6.764;2023-06-24T06:20:13;20.80;99.90
26503;DHT22;14177;51.520;6.764;2023-06-24T06:22:40;20.80;99.90
26503;DHT22;14177;51.520;6.764;2023-06-24T06:25:07;20.90;99.90
26503;DHT22;14177;51.520;6.764;2023-06-24T06:27:34;20.90;99.90
26503;DHT22;14177;51.520;6.764;2023-06-24T06:30:03;21.00;99.90
26503;DHT22;14177;51.520;6.764;2023-06-24T06:32:30;21.00;99.90
26503;DHT22;14177;51.520;6.764;2023-06-24T06:34:58;21.00;99.90
26503;DHT22;14177;51.520;6.764;2023-06-24T06:37:25;21.00;99.90
26503;DHT22;14177;51.520;6.764;2023-06-24T06:39:52;21.00;99.90
26503;DHT22;14177;51.520;6.764;2023-06-24T06:42:19;21.00;99.90
26503;DHT22;14177;51.520;6.764;2023-06-24T06:44:45;21.10;99.90
26503;DHT22;14177;51.520;6.764;2023-06-24T06:47:12;21.30;99.90
26503;DHT22;14177;51.520;6.764;2023-06-24T06:49:39;21.40;99.90
26503;DHT22;14177;51.520;6.764;2023-06-24T06:52:06;21.50;99.90
26503;DHT22;14177;51.520;6.764;2023-06-24T06:54:33;21.60;99.90
26503;DHT22;14177;51.520;6.764;2023-06-24T06:57:02;21.70;99.90
26503;DHT22;14177;51.520;6.764;2023-06-24T06:59:31;21.90;99.90
26503;DHT22;14177;51.520;6.764;2023-06-24T07:01:58;22.00;99.90
26503;DHT22;14177;51.520;6.764;2023-06-24T07:04:25;22.10;99.90
26503;DHT22;14177;51.520;6.764;2023-06-24T07:06:52;22.30;99.90
26503;DHT22;14177;51.520;6.764;2023-06-24T07:09:19;22.30;99.90
26503;DHT22;14177;51.520;6.764;2023-06-24T07:11:46;22.40;99.90
26503;DHT22;14177;51.520;6.764;2023-06-24T07:14:13;22.50;99.90
26503;DHT22;14177;51.520;6.764;2023-06-24T07:16:40;22.50;99.90
26503;DHT22;14177;51.520;6.764;2023-06-24T07:19:07;22.60;99.90
26503;DHT22;14177;51.520;6.764;2023-06-24T07:21:34;22.70;99.90
26503;DHT22;14177;51.520;6.764;2023-06-24T07:24:00;22.80;99.90
26503;DHT22;14177;51.520;6.764;2023-06-24T07:26:27;22.80;99.90
26503;DHT22;14177;51.520;6.764;2023-06-24T07:28:57;22.90;99.90
26503;DHT22;14177;51.520;6.764;2023-06-24T07:31:35;23.00;99.90
26503;DHT22;14177;51.520;6.764;2023-06-24T07:34:04;23.20;99.90
26503;DHT22;14177;51.520;6.764;2023-06-24T07:36:33;23.30;99.90
26503;DHT22;14177;51.520;6.764;2023-06-24T07:39:00;23.50;99.90
26503;DHT22;14177;51.520;6.764;2023-06-24T07:41:41;23.60;99.90
26503;DHT22;14177;51.520;6.764;2023-06-24T07:44:15;23.80;99.90
26503;DHT22;14177;51.520;6.764;2023-06-24T07:46:43;24.00;99.90
26503;DHT22;14177;51.520;6.764;2023-06-24T07:49:10;24.00;99.90
26503;DHT22;14177;51.520;6.764;2023-06-24T07:51:39;24.10;99.90
26503;DHT22;14177;51.520;6.764;2023-06-24T07:54:06;24.20;99.90
26503;DHT22;14177;51.520;6.764;2023-06-24T07:56:33;24.30;99.90
26503;DHT22;14177;51.520;6.764;2023-06-24T07:59:02;24.40;99.90
26503;DHT22;14177;51.520;6.764;2023-06-24T08:01:29;24.50;99.90
26503;DHT22;14177;51.520;6.764;2023-06-24T08:03:57;24.60;99.90
26503;DHT22;14177;51.520;6.764;2023-06-24T08:06:24;24.70;99.90
26503;DHT22;14177;51.520;6.764;2023-06-24T08:08:52;24.80;99.90
26503;DHT22;14177;51.520;6.764;2023-06-24T08:11:20;24.90;99.90
26503;DHT22;14177;51.520;6.764;2023-06-24T08:13:48;24.90;99.90
26503;DHT22;14177;51.520;6.764;2023-06-24T08:16:17;24.90;99.90
26503;DHT22;14177;51.520;6.764;2023-06-24T08:18:47;25.10;99.90
26503;DHT22;14177;51.520;6.764;2023-06-24T08:21:14;25.10;99.90
26503;DHT22;14177;51.520;6.764;2023-06-24T08:23:42;25.10;99.90
26503;DHT22;14177;51.520;6.764;2023-06-24T08:26:09;25.30;99.90
26503;DHT22;14177;51.520;6.764;2023-06-24T08:28:43;25.50;99.90
26503;DHT22;14177;51.520;6.764;2023-06-24T08:31:12;25.60;99.80
26503;DHT22;14177;51.520;6.764;2023-06-24T08:33:44;25.70;99.60
26503;DHT22;14177;51.520;6.764;2023-06-24T08:36:16;25.80;99.90
26503;DHT22;14177;51.520;6.764;2023-06-24T08:38:43;26.00;98.90
26503;DHT22;14177;51.520;6.764;2023-06-24T08:41:10;26.20;97.90
26503;DHT22;14177;51.520;6.764;2023-06-24T08:43:38;26.30;97.40
26503;DHT22;14177;51.520;6.764;2023-06-24T08:46:07;26.50;96.30
26503;DHT22;14177;51.520;6.764;2023-06-24T08:48:35;26.70;96.30
26503;DHT22;14177;51.520;6.764;2023-06-24T08:51:08;26.70;94.30
26503;DHT22;14177;51.520;6.764;2023-06-24T08:53:38;26.80;94.40
26503;DHT22;14177;51.520;6.764;2023-06-24T08:56:11;26.90;93.30
26503;DHT22;14177;51.520;6.764;2023-06-24T08:58:38;26.90;93.00
26503;DHT22;14177;51.520;6.764;2023-06-24T09:01:07;26.90;93.30
26503;DHT22;14177;51.520;6.764;2023-06-24T09:03:48;27.10;93.20
26503;DHT22;14177;51.520;6.764;2023-06-24T09:06:15;27.40;94.10
26503;DHT22;14177;51.520;6.764;2023-06-24T09:08:53;27.50;91.30
26503;DHT22;14177;51.520;6.764;2023-06-24T09:11:25;27.70;91.00
26503;DHT22;14177;51.520;6.764;2023-06-24T09:13:56;27.70;90.30
26503;DHT22;14177;51.520;6.764;2023-06-24T09:16:26;27.80;89.40
26503;DHT22;14177;51.520;6.764;2023-06-24T09:18:53;28.00;88.40
26503;DHT22;14177;51.520;6.764;2023-06-24T09:21:28;28.00;83.10
26503;DHT22;14177;51.520;6.764;2023-06-24T09:24:05;28.10;81.50
26503;DHT22;14177;51.520;6.764;2023-06-24T09:26:32;28.10;77.60
26503;DHT22;14177;51.520;6.764;2023-06-24T09:29:00;28.20;78.50
26503;DHT22;14177;51.520;6.764;2023-06-24T09:31:27;28.20;77.70
26503;DHT22;14177;51.520;6.764;2023-06-24T09:33:59;28.50;78.30
26503;DHT22;14177;51.520;6.764;2023-06-24T09:36:27;28.80;77.20
26503;DHT22;14177;51.520;6.764;2023-06-24T09:38:55;29.00;75.90
26503;DHT22;14177;51.520;6.764;2023-06-24T09:41:35;29.20;76.60
26503;DHT22;14177;51.520;6.764;2023-06-24T09:44:08;29.40;76.70
26503;DHT22;14177;51.520;6.764;2023-06-24T09:46:38;29.60;74.10
26503;DHT22;14177;51.520;6.764;2023-06-24T09:49:19;29.50;67.60
26503;DHT22;14177;51.520;6.764;2023-06-24T09:51:49;29.30;68.00
26503;DHT22;14177;51.520;6.764;2023-06-24T09:54:25;29.30;67.00
26503;DHT22;14177;51.520;6.764;2023-06-24T09:57:02;29.30;65.70
26503;DHT22;14177;51.520;6.764;2023-06-24T09:59:31;29.30;65.80
26503;DHT22;14177;51.520;6.764;2023-06-24T10:02:02;29.50;67.70
26503;DHT22;14177;51.520;6.764;2023-06-24T10:04:34;29.50;67.10
26503;DHT22;14177;51.520;6.764;2023-06-24T10:07:01;29.50;66.20
26503;DHT22;14177;51.520;6.764;2023-06-24T10:09:29;29.60;65.20
26503;DHT22;14177;51.520;6.764;2023-06-24T10:11:58;29.50;64.90
26503;DHT22;14177;51.520;6.764;2023-06-24T10:14:26;29.60;65.20
26503;DHT22;14177;51.520;6.764;2023-06-24T10:17:04;29.90;66.00
26503;DHT22;14177;51.520;6.764;2023-06-24T10:19:40;30.10;65.10
26503;DHT22;14177;51.520;6.764;2023-06-24T10:22:09;30.40;64.00
26503;DHT22;14177;51.520;6.764;2023-06-24T10:24:45;30.60;63.10
26503;DHT22;14177;51.520;6.764;2023-06-24T10:27:16;30.60;63.40
26503;DHT22;14177;51.520;6.764;2023-06-24T10:29:53;30.70;62.30
26503;DHT22;14177;51.520;6.764;2023-06-24T10:32:23;30.80;62.70
26503;DHT22;14177;51.520;6.764;2023-06-24T10:34:56;30.70;61.20
26503;DHT22;14177;51.520;6.764;2023-06-24T10:37:30;30.60;59.50
26503;DHT22;14177;51.520;6.764;2023-06-24T10:39:59;30.60;58.50
26503;DHT22;14177;51.520;6.764;2023-06-24T10:42:29;30.70;58.90
26503;DHT22;14177;51.520;6.764;2023-06-24T10:44:57;30.90;55.90
26503;DHT22;14177;51.520;6.764;2023-06-24T10:50:18;31.00;57.70
26503;DHT22;14177;51.520;6.764;2023-06-24T10:52:49;31.00;57.40
26503;DHT22;14177;51.520;6.764;2023-06-24T10:55:20;31.20;59.10
26503;DHT22;14177;51.520;6.764;2023-06-24T10:57:49;31.50;59.40
26503;DHT22;14177;51.520;6.764;2023-06-24T11:00:16;31.60;57.60
26503;DHT22;14177;51.520;6.764;2023-06-24T11:02:44;31.80;58.30
26503;DHT22;14177;51.520;6.764;2023-06-24T11:05:11;31.70;56.60
26503;DHT22;14177;51.520;6.764;2023-06-24T11:07:38;31.60;55.10
26503;DHT22;14177;51.520;6.764;2023-06-24T11:10:15;31.60;53.30
26503;DHT22;14177;51.520;6.764;2023-06-24T11:12:43;31.70;54.90
26503;DHT22;14177;51.520;6.764;2023-06-24T11:15:12;31.70;55.00
26503;DHT22;14177;51.520;6.764;2023-06-24T11:17:40;31.50;54.50
26503;DHT22;14177;51.520;6.764;2023-06-24T11:20:10;31.40;55.40
26503;DHT22;14177;51.520;6.764;2023-06-24T11:22:42;31.60;53.00
26503;DHT22;14177;51.520;6.764;2023-06-24T11:25:20;31.70;51.00
26503;DHT22;14177;51.520;6.764;2023-06-24T11:27:50;31.60;52.60
26503;DHT22;14177;51.520;6.764;2023-06-24T11:30:20;31.50;51.30
26503;DHT22;14177;51.520;6.764;2023-06-24T11:32:47;31.50;54.30
26503;DHT22;14177;51.520;6.764;2023-06-24T11:35:16;31.70;54.50
26503;DHT22;14177;51.520;6.764;2023-06-24T11:37:45;32.00;54.30
26503;DHT22;14177;51.520;6.764;2023-06-24T11:40:16;32.30;52.80
26503;DHT22;14177;51.520;6.764;2023-06-24T11:42:46;32.20;52.70
26503;DHT22;14177;51.520;6.764;2023-06-24T11:45:20;32.10;54.50
26503;DHT22;14177;51.520;6.764;2023-06-24T11:47:48;32.20;54.60
26503;DHT22;14177;51.520;6.764;2023-06-24T11:50:26;32.40;53.80
26503;DHT22;14177;51.520;6.764;2023-06-24T11:53:07;32.30;53.60
26503;DHT22;14177;51.520;6.764;2023-06-24T11:55:52;32.00;54.00
26503;DHT22;14177;51.520;6.764;2023-06-24T11:58:36;31.60;54.50
26503;DHT22;14177;51.520;6.764;2023-06-24T12:01:41;31.60;55.50
26503;DHT22;14177;51.520;6.764;2023-06-24T12:04:13;32.00;54.60
26503;DHT22;14177;51.520;6.764;2023-06-24T12:06:41;32.40;56.80
26503;DHT22;14177;51.520;6.764;2023-06-24T12:09:09;32.80;55.50
26503;DHT22;14177;51.520;6.764;2023-06-24T12:11:37;33.10;54.80
26503;DHT22;14177;51.520;6.764;2023-06-24T12:14:08;33.40;53.00
26503;DHT22;14177;51.520;6.764;2023-06-24T12:16:37;33.60;53.20
26503;DHT22;14177;51.520;6.764;2023-06-24T12:19:06;33.70;52.20
26503;DHT22;14177;51.520;6.764;2023-06-24T12:21:35;33.70;51.60
26503;DHT22;14177;51.520;6.764;2023-06-24T12:24:02;33.50;51.40
26503;DHT22;14177;51.520;6.764;2023-06-24T12:26:31;33.60;50.60
26503;DHT22;14177;51.520;6.764;2023-06-24T12:29:00;33.40;51.10
26503;DHT22;14177;51.520;6.764;2023-06-24T12:31:27;33.50;50.00
26503;DHT22;14177;51.520;6.764;2023-06-24T12:34:08;33.50;50.90
26503;DHT22;14177;51.520;6.764;2023-06-24T12:36:34;33.60;49.70
26503;DHT22;14177;51.520;6.764;2023-06-24T12:39:01;33.40;49.80
26503;DHT22;14177;51.520;6.764;2023-06-24T12:41:28;33.40;50.70
26503;DHT22;14177;51.520;6.764;2023-06-24T12:43:55;33.60;50.00
26503;DHT22;14177;51.520;6.764;2023-06-24T12:46:26;33.70;50.90
26503;DHT22;14177;51.520;6.764;2023-06-24T12:48:55;33.90;49.60
26503;DHT22;14177;51.520;6.764;2023-06-24T12:51:23;33.90;47.80
26503;DHT22;14177;51.520;6.764;2023-06-24T12:53:50;33.70;47.00
26503;DHT22;14177;51.520;6.764;2023-06-24T12:56:17;33.50;47.90
26503;DHT22;14177;51.520;6.764;2023-06-24T12:58:45;33.20;47.70
26503;DHT22;14177;51.520;6.764;2023-06-24T13:01:12;33.10;46.60
26503;DHT22;14177;51.520;6.764;2023-06-24T13:03:44;32.90;47.30
26503;DHT22;14177;51.520;6.764;2023-06-24T13:06:16;32.90;47.50
26503;DHT22;14177;51.520;6.764;2023-06-24T13:08:43;32.80;49.10
26503;DHT22;14177;51.520;6.764;2023-06-24T13:11:10;32.90;46.80
26503;DHT22;14177;51.520;6.764;2023-06-24T13:13:37;33.00;46.80
26503;DHT22;14177;51.520;6.764;2023-06-24T13:16:04;33.10;47.10
26503;DHT22;14177;51.520;6.764;2023-06-24T13:18:31;33.00;46.60
26503;DHT22;14177;51.520;6.764;2023-06-24T13:20:58;32.90;48.20
26503;DHT22;14177;51.520;6.764;2023-06-24T13:23:41;33.00;48.60
26503;DHT22;14177;51.520;6.764;2023-06-24T13:26:08;33.40;48.70
26503;DHT22;14177;51.520;6.764;2023-06-24T13:28:35;33.80;48.70
26503;DHT22;14177;51.520;6.764;2023-06-24T13:31:02;34.10;48.90
26503;DHT22;14177;51.520;6.764;2023-06-24T13:33:29;34.30;47.90
26503;DHT22;14177;51.520;6.764;2023-06-24T13:35:55;34.50;47.60
26503;DHT22;14177;51.520;6.764;2023-06-24T13:38:23;34.60;46.80
26503;DHT22;14177;51.520;6.764;2023-06-24T13:40:49;34.50;46.30
26503;DHT22;14177;51.520;6.764;2023-06-24T13:43:16;34.40;46.30
26503;DHT22;14177;51.520;6.764;2023-06-24T13:45:43;34.60;46.20
26503;DHT22;14177;51.520;6.764;2023-06-24T13:48:10;34.20;46.30
26503;DHT22;14177;51.520;6.764;2023-06-24T13:50:37;34.20;46.60
26503;DHT22;14177;51.520;6.764;2023-06-24T13:53:04;34.10;45.70
26503;DHT22;14177;51.520;6.764;2023-06-24T13:55:31;34.00;47.50
26503;DHT22;14177;51.520;6.764;2023-06-24T13:57:58;34.10;47.80
26503;DHT22;14177;51.520;6.764;2023-06-24T14:00:25;34.30;47.80
26503;DHT22;14177;51.520;6.764;2023-06-24T14:02:52;34.30;46.40
26503;DHT22;14177;51.520;6.764;2023-06-24T14:05:20;34.40;46.90
26503;DHT22;14177;51.520;6.764;2023-06-24T14:07:47;34.40;46.50
26503;DHT22;14177;51.520;6.764;2023-06-24T14:10:15;34.40;47.50
26503;DHT22;14177;51.520;6.764;2023-06-24T14:12:41;34.60;46.80
26503;DHT22;14177;51.520;6.764;2023-06-24T14:15:09;34.70;46.50
26503;DHT22;14177;51.520;6.764;2023-06-24T14:17:36;34.70;46.70
26503;DHT22;14177;51.520;6.764;2023-06-24T14:20:03;34.70;47.30
26503;DHT22;14177;51.520;6.764;2023-06-24T14:22:31;34.70;46.40
26503;DHT22;14177;51.520;6.764;2023-06-24T14:24:59;34.70;46.10
26503;DHT22;14177;51.520;6.764;2023-06-24T14:27:26;34.70;47.20
26503;DHT22;14177;51.520;6.764;2023-06-24T14:29:53;34.60;46.20
26503;DHT22;14177;51.520;6.764;2023-06-24T14:32:20;34.60;45.60
26503;DHT22;14177;51.520;6.764;2023-06-24T14:34:47;34.30;45.00
26503;DHT22;14177;51.520;6.764;2023-06-24T14:37:14;34.00;44.50
26503;DHT22;14177;51.520;6.764;2023-06-24T14:39:41;33.90;46.80
26503;DHT22;14177;51.520;6.764;2023-06-24T14:42:08;34.10;44.70
26503;DHT22;14177;51.520;6.764;2023-06-24T14:44:36;34.00;44.60
26503;DHT22;14177;51.520;6.764;2023-06-24T14:47:03;34.10;46.40
26503;DHT22;14177;51.520;6.764;2023-06-24T14:49:30;34.10;45.50
26503;DHT22;14177;51.520;6.764;2023-06-24T14:51:59;34.20;46.10
26503;DHT22;14177;51.520;6.764;2023-06-24T14:54:29;34.20;44.80
26503;DHT22;14177;51.520;6.764;2023-06-24T14:56:56;34.00;45.90
26503;DHT22;14177;51.520;6.764;2023-06-24T14:59:23;33.90;46.20
26503;DHT22;14177;51.520;6.764;2023-06-24T15:01:49;33.80;45.80
26503;DHT22;14177;51.520;6.764;2023-06-24T15:04:18;33.80;45.20
26503;DHT22;14177;51.520;6.764;2023-06-24T15:06:48;33.70;44.30
26503;DHT22;14177;51.520;6.764;2023-06-24T15:09:15;33.60;45.80
26503;DHT22;14177;51.520;6.764;2023-06-24T15:11:42;33.80;45.40
26503;DHT22;14177;51.520;6.764;2023-06-24T15:14:09;33.80;46.50
26503;DHT22;14177;51.520;6.764;2023-06-24T15:16:36;33.90;46.00
26503;DHT22;14177;51.520;6.764;2023-06-24T15:19:03;33.80;46.00
26503;DHT22;14177;51.520;6.764;2023-06-24T15:21:30;33.90;45.30
26503;DHT22;14177;51.520;6.764;2023-06-24T15:24:03;33.60;44.90
26503;DHT22;14177;51.520;6.764;2023-06-24T15:26:30;33.40;45.60
26503;DHT22;14177;51.520;6.764;2023-06-24T15:28:57;33.50;46.70
26503;DHT22;14177;51.520;6.764;2023-06-24T15:31:24;33.40;44.50
26503;DHT22;14177;51.520;6.764;2023-06-24T15:33:52;33.30;44.10
26503;DHT22;14177;51.520;6.764;2023-06-24T15:36:19;33.10;45.10
26503;DHT22;14177;51.520;6.764;2023-06-24T15:38:48;33.00;44.70
26503;DHT22;14177;51.520;6.764;2023-06-24T15:41:15;33.10;47.80
26503;DHT22;14177;51.520;6.764;2023-06-24T15:43:42;33.10;47.90
26503;DHT22;14177;51.520;6.764;2023-06-24T15:46:09;33.10;47.30
26503;DHT22;14177;51.520;6.764;2023-06-24T15:48:36;33.20;48.40
26503;DHT22;14177;51.520;6.764;2023-06-24T15:51:04;33.40;47.40
26503;DHT22;14177;51.520;6.764;2023-06-24T15:53:31;33.50;47.90
26503;DHT22;14177;51.520;6.764;2023-06-24T15:56:00;33.60;47.20
26503;DHT22;14177;51.520;6.764;2023-06-24T15:58:27;33.50;47.20
26503;DHT22;14177;51.520;6.764;2023-06-24T16:00:54;33.70;48.90
26503;DHT22;14177;51.520;6.764;2023-06-24T16:03:21;33.90;47.60
26503;DHT22;14177;51.520;6.764;2023-06-24T16:05:52;34.00;47.70
26503;DHT22;14177;51.520;6.764;2023-06-24T16:08:19;34.10;47.40
26503;DHT22;14177;51.520;6.764;2023-06-24T16:10:48;34.10;47.10
26503;DHT22;14177;51.520;6.764;2023-06-24T16:13:15;33.90;47.00
26503;DHT22;14177;51.520;6.764;2023-06-24T16:15:42;33.80;47.60
26503;DHT22;14177;51.520;6.764;2023-06-24T16:18:09;33.80;47.40
26503;DHT22;14177;51.520;6.764;2023-06-24T16:20:36;33.70;47.70
26503;DHT22;14177;51.520;6.764;2023-06-24T16:23:03;33.60;48.00
26503;DHT22;14177;51.520;6.764;2023-06-24T16:25:30;33.50;47.90
26503;DHT22;14177;51.520;6.764;2023-06-24T16:27:58;33.30;48.00
26503;DHT22;14177;51.520;6.764;2023-06-24T16:30:25;33.20;47.90
26503;DHT22;14177;51.520;6.764;2023-06-24T16:32:52;32.90;47.60
26503;DHT22;14177;51.520;6.764;2023-06-24T16:35:19;32.80;48.30
26503;DHT22;14177;51.520;6.764;2023-06-24T16:37:46;32.70;48.20
26503;DHT22;14177;51.520;6.764;2023-06-24T16:40:13;32.60;48.50
26503;DHT22;14177;51.520;6.764;2023-06-24T16:42:40;32.40;48.70
26503;DHT22;14177;51.520;6.764;2023-06-24T16:45:07;32.30;49.20
26503;DHT22;14177;51.520;6.764;2023-06-24T16:47:34;32.20;48.20
26503;DHT22;14177;51.520;6.764;2023-06-24T16:50:01;32.00;49.20
26503;DHT22;14177;51.520;6.764;2023-06-24T16:52:29;31.80;48.90
26503;DHT22;14177;51.520;6.764;2023-06-24T16:54:56;31.70;48.90
26503;DHT22;14177;51.520;6.764;2023-06-24T16:57:25;31.60;48.70
26503;DHT22;14177;51.520;6.764;2023-06-24T16:59:52;31.50;48.50
26503;DHT22;14177;51.520;6.764;2023-06-24T17:02:19;31.50;49.40
26503;DHT22;14177;51.520;6.764;2023-06-24T17:04:46;31.40;49.20
26503;DHT22;14177;51.520;6.764;2023-06-24T17:07:13;31.30;48.70
26503;DHT22;14177;51.520;6.764;2023-06-24T17:09:41;31.20;49.00
26503;DHT22;14177;51.520;6.764;2023-06-24T17:12:08;31.20;48.60
26503;DHT22;14177;51.520;6.764;2023-06-24T17:14:35;31.20;49.10
26503;DHT22;14177;51.520;6.764;2023-06-24T17:17:01;31.10;49.60
26503;DHT22;14177;51.520;6.764;2023-06-24T17:19:28;31.00;49.50
26503;DHT22;14177;51.520;6.764;2023-06-24T17:21:55;30.90;49.90
26503;DHT22;14177;51.520;6.764;2023-06-24T17:24:22;30.90;50.20
26503;DHT22;14177;51.520;6.764;2023-06-24T17:26:49;30.90;50.30
26503;DHT22;14177;51.520;6.764;2023-06-24T17:29:16;30.80;50.00
26503;DHT22;14177;51.520;6.764;2023-06-24T17:31:43;30.70;50.50
26503;DHT22;14177;51.520;6.764;2023-06-24T17:34:10;30.70;51.20
26503;DHT22;14177;51.520;6.764;2023-06-24T17:36:37;30.60;50.90
26503;DHT22;14177;51.520;6.764;2023-06-24T17:39:04;30.50;51.10
26503;DHT22;14177;51.520;6.764;2023-06-24T17:41:31;30.40;50.80
26503;DHT22;14177;51.520;6.764;2023-06-24T17:43:58;30.40;51.50
26503;DHT22;14177;51.520;6.764;2023-06-24T17:46:25;30.30;51.80
26503;DHT22;14177;51.520;6.764;2023-06-24T17:48:52;30.30;52.20
26503;DHT22;14177;51.520;6.764;2023-06-24T17:51:19;30.30;52.50
26503;DHT22;14177;51.520;6.764;2023-06-24T17:53:46;30.20;52.60
26503;DHT22;14177;51.520;6.764;2023-06-24T17:56:13;30.10;52.90
26503;DHT22;14177;51.520;6.764;2023-06-24T17:58:39;30.10;53.10
26503;DHT22;14177;51.520;6.764;2023-06-24T18:01:07;29.90;53.20
26503;DHT22;14177;51.520;6.764;2023-06-24T18:03:41;29.90;53.40
26503;DHT22;14177;51.520;6.764;2023-06-24T18:06:08;29.80;54.20
26503;DHT22;14177;51.520;6.764;2023-06-24T18:08:34;29.70;53.80
26503;DHT22;14177;51.520;6.764;2023-06-24T18:11:01;29.60;54.20
26503;DHT22;14177;51.520;6.764;2023-06-24T18:13:28;29.60;54.40
26503;DHT22;14177;51.520;6.764;2023-06-24T18:15:55;29.50;54.60
26503;DHT22;14177;51.520;6.764;2023-06-24T18:18:22;29.40;54.70
26503;DHT22;14177;51.520;6.764;2023-06-24T18:20:50;29.30;54.60
26503;DHT22;14177;51.520;6.764;2023-06-24T18:23:17;29.20;54.90
26503;DHT22;14177;51.520;6.764;2023-06-24T18:25:43;29.20;55.10
26503;DHT22;14177;51.520;6.764;2023-06-24T18:28:10;29.10;55.10
26503;DHT22;14177;51.520;6.764;2023-06-24T18:30:37;29.00;55.40
26503;DHT22;14177;51.520;6.764;2023-06-24T18:33:04;28.90;55.60
26503;DHT22;14177;51.520;6.764;2023-06-24T18:35:31;28.90;56.00
26503;DHT22;14177;51.520;6.764;2023-06-24T18:37:58;28.80;56.10
26503;DHT22;14177;51.520;6.764;2023-06-24T18:40:25;28.80;57.00
26503;DHT22;14177;51.520;6.764;2023-06-24T18:42:52;28.60;56.30
26503;DHT22;14177;51.520;6.764;2023-06-24T18:45:19;28.60;56.40
26503;DHT22;14177;51.520;6.764;2023-06-24T18:47:48;28.50;56.80
26503;DHT22;14177;51.520;6.764;2023-06-24T18:50:20;28.50;56.80
26503;DHT22;14177;51.520;6.764;2023-06-24T18:52:47;28.40;56.90
26503;DHT22;14177;51.520;6.764;2023-06-24T18:55:14;28.30;57.30
26503;DHT22;14177;51.520;6.764;2023-06-24T18:57:41;28.30;57.70
26503;DHT22;14177;51.520;6.764;2023-06-24T19:00:09;28.30;58.10
26503;DHT22;14177;51.520;6.764;2023-06-24T19:02:36;28.20;57.80
26503;DHT22;14177;51.520;6.764;2023-06-24T19:05:03;28.10;57.90
26503;DHT22;14177;51.520;6.764;2023-06-24T19:07:30;28.10;58.40
26503;DHT22;14177;51.520;6.764;2023-06-24T19:09:58;28.00;58.70
26503;DHT22;14177;51.520;6.764;2023-06-24T19:12:28;27.90;58.90
26503;DHT22;14177;51.520;6.764;2023-06-24T19:14:55;27.80;59.20
26503;DHT22;14177;51.520;6.764;2023-06-24T19:17:22;27.70;60.30
26503;DHT22;14177;51.520;6.764;2023-06-24T19:19:49;27.70;60.80
26503;DHT22;14177;51.520;6.764;2023-06-24T19:22:16;27.60;61.90
26503;DHT22;14177;51.520;6.764;2023-06-24T19:24:43;27.50;62.20
26503;DHT22;14177;51.520;6.764;2023-06-24T19:27:11;27.50;62.90
26503;DHT22;14177;51.520;6.764;2023-06-24T19:29:38;27.30;63.20
26503;DHT22;14177;51.520;6.764;2023-06-24T19:32:05;27.20;63.50
26503;DHT22;14177;51.520;6.764;2023-06-24T19:34:33;27.10;64.50
26503;DHT22;14177;51.520;6.764;2023-06-24T19:37:00;26.90;64.80
26503;DHT22;14177;51.520;6.764;2023-06-24T19:39:27;26.80;65.50
26503;DHT22;14177;51.520;6.764;2023-06-24T19:41:55;26.60;66.30
26503;DHT22;14177;51.520;6.764;2023-06-24T19:44:22;26.40;67.10
26503;DHT22;14177;51.520;6.764;2023-06-24T19:46:49;26.30;67.80
26503;DHT22;14177;51.520;6.764;2023-06-24T19:49:16;26.30;68.70
26503;DHT22;14177;51.520;6.764;2023-06-24T19:51:42;26.20;69.10
26503;DHT22;14177;51.520;6.764;2023-06-24T19:54:10;26.10;69.80
26503;DHT22;14177;51.520;6.764;2023-06-24T19:56:37;26.00;70.90
26503;DHT22;14177;51.520;6.764;2023-06-24T19:59:04;25.90;71.90
26503;DHT22;14177;51.520;6.764;2023-06-24T20:01:31;25.80;73.40
26503;DHT22;14177;51.520;6.764;2023-06-24T20:03:58;25.70;75.20
26503;DHT22;14177;51.520;6.764;2023-06-24T20:06:26;25.60;77.40
26503;DHT22;14177;51.520;6.764;2023-06-24T20:08:54;25.50;80.00
26503;DHT22;14177;51.520;6.764;2023-06-24T20:11:21;25.30;83.00
26503;DHT22;14177;51.520;6.764;2023-06-24T20:13:48;25.30;86.00
26503;DHT22;14177;51.520;6.764;2023-06-24T20:16:15;25.20;88.70
26503;DHT22;14177;51.520;6.764;2023-06-24T20:18:42;25.10;90.90
26503;DHT22;14177;51.520;6.764;2023-06-24T20:21:09;25.10;91.90
26503;DHT22;14177;51.520;6.764;2023-06-24T20:23:40;25.00;92.80
26503;DHT22;14177;51.520;6.764;2023-06-24T20:26:07;24.90;93.80
26503;DHT22;14177;51.520;6.764;2023-06-24T20:28:34;24.80;94.80
26503;DHT22;14177;51.520;6.764;2023-06-24T20:31:16;24.70;95.70
26503;DHT22;14177;51.520;6.764;2023-06-24T20:33:58;24.60;96.80
26503;DHT22;14177;51.520;6.764;2023-06-24T20:45:33;24.20;99.50
26503;DHT22;14177;51.520;6.764;2023-06-24T20:48:22;24.00;99.90
26503;DHT22;14177;51.520;6.764;2023-06-24T20:51:12;24.00;99.90
26503;DHT22;14177;51.520;6.764;2023-06-24T20:53:59;23.90;99.90
26503;DHT22;14177;51.520;6.764;2023-06-24T20:58:13;23.80;99.90
26503;DHT22;14177;51.520;6.764;2023-06-24T21:01:08;23.90;99.90
26503;DHT22;14177;51.520;6.764;2023-06-24T21:03:58;23.90;99.90
26503;DHT22;14177;51.520;6.764;2023-06-24T21:06:46;23.80;99.90
26503;DHT22;14177;51.520;6.764;2023-06-24T21:10:33;23.80;99.90
26503;DHT22;14177;51.520;6.764;2023-06-24T21:13:48;23.80;99.90
26503;DHT22;14177;51.520;6.764;2023-06-24T21:16:33;23.70;99.90
26503;DHT22;14177;51.520;6.764;2023-06-24T21:19:18;23.60;99.90
26503;DHT22;14177;51.520;6.764;2023-06-24T21:22:08;23.60;99.90
26503;DHT22;14177;51.520;6.764;2023-06-24T21:24:55;23.50;99.90
26503;DHT22;14177;51.520;6.764;2023-06-24T21:27:54;23.40;99.90
26503;DHT22;14177;51.520;6.764;2023-06-24T21:30:40;23.40;99.90
26503;DHT22;14177;51.520;6.764;2023-06-24T21:33:34;23.30;99.90
26503;DHT22;14177;51.520;6.764;2023-06-24T21:36:25;23.20;99.90
26503;DHT22;14177;51.520;6.764;2023-06-24T21:39:27;23.10;99.90